sensor_id;sensor_type;location;lat;lon;timestamp;P1;P2;P0
55276;PMS5003;41136;51.478;-2.610;2023-05-10T00:00:17;24;23;
55276;PMS5003;41136;51.478;-2.610;2023-05-10T00:02:43;21;20;
55276;PMS5003;41136;51.478;-2.610;2023-05-10T00:05:08;21;20;
55276;PMS5003;41136;51.478;-2.610;2023-05-10T00:07:33;23;22;
55276;PMS5003;41136;51.478;-2.610;2023-05-10T00:09:58;29;23;
55276;PMS5003;41136;51.478;-2.610;2023-05-10T00:12:24;35;31;
55276;PMS5003;41136;51.478;-2.610;2023-05-10T00:14:49;37;28;
55276;PMS5003;41136;51.478;-2.610;2023-05-10T00:17:14;33;30;
55276;PMS5003;41136;51.478;-2.610;2023-05-10T00:19:40;34;29;
55276;PMS5003;41136;51.478;-2.610;2023-05-10T00:22:05;35;30;
55276;PMS5003;41136;51.478;-2.610;2023-05-10T00:24:30;29;27;
55276;PMS5003;41136;51.478;-2.610;2023-05-10T00:26:56;35;28;
55276;PMS5003;41136;51.478;-2.610;2023-05-10T00:29:21;35;30;
55276;PMS5003;41136;51.478;-2.610;2023-05-10T00:31:46;34;33;
55276;PMS5003;41136;51.478;-2.610;2023-05-10T00:34:12;38;34;
55276;PMS5003;41136;51.478;-2.610;2023-05-10T00:36:37;41;33;
55276;PMS5003;41136;51.478;-2.610;2023-05-10T00:39:03;40;34;
55276;PMS5003;41136;51.478;-2.610;2023-05-10T00:41:28;47;35;
55276;PMS5003;41136;51.478;-2.610;2023-05-10T00:43:54;48;37;
55276;PMS5003;41136;51.478;-2.610;2023-05-10T00:46:19;39;32;
55276;PMS5003;41136;51.478;-2.610;2023-05-10T00:48:44;47;40;
55276;PMS5003;41136;51.478;-2.610;2023-05-10T00:51:09;50;44;
55276;PMS5003;41136;51.478;-2.610;2023-05-10T00:53:34;46;42;
55276;PMS5003;41136;51.478;-2.610;2023-05-10T00:56:00;42;33;
55276;PMS5003;41136;51.478;-2.610;2023-05-10T00:58:25;45;36;
55276;PMS5003;41136;51.478;-2.610;2023-05-10T01:00:51;43;38;
55276;PMS5003;41136;51.478;-2.610;2023-05-10T01:03:16;39;35;
55276;PMS5003;41136;51.478;-2.610;2023-05-10T01:05:42;46;33;
55276;PMS5003;41136;51.478;-2.610;2023-05-10T01:08:07;38;32;
55276;PMS5003;41136;51.478;-2.610;2023-05-10T01:10:32;38;34;
55276;PMS5003;41136;51.478;-2.610;2023-05-10T01:12:57;36;33;
55276;PMS5003;41136;51.478;-2.610;2023-05-10T01:15:23;39;36;
55276;PMS5003;41136;51.478;-2.610;2023-05-10T01:17:48;37;30;
55276;PMS5003;41136;51.478;-2.610;2023-05-10T01:20:13;37;34;
55276;PMS5003;41136;51.478;-2.610;2023-05-10T01:22:46;30;29;
55276;PMS5003;41136;51.478;-2.610;2023-05-10T01:30:01;37;30;
55276;PMS5003;41136;51.478;-2.610;2023-05-10T01:32:21;32;27;
55276;PMS5003;41136;51.478;-2.610;2023-05-10T01:34:47;29;28;
55276;PMS5003;41136;51.478;-2.610;2023-05-10T01:37:13;34;29;
55276;PMS5003;41136;51.478;-2.610;2023-05-10T01:39:39;41;37;
55276;PMS5003;41136;51.478;-2.610;2023-05-10T01:42:03;30;27;
55276;PMS5003;41136;51.478;-2.610;2023-05-10T01:44:29;38;33;
55276;PMS5003;41136;51.478;-2.610;2023-05-10T01:46:53;37;30;
55276;PMS5003;41136;51.478;-2.610;2023-05-10T01:49:18;37;31;
55276;PMS5003;41136;51.478;-2.610;2023-05-10T01:51:44;39;32;
55276;PMS5003;41136;51.478;-2.610;2023-05-10T01:54:08;40;35;
55276;PMS5003;41136;51.478;-2.610;2023-05-10T01:56:34;39;32;
55276;PMS5003;41136;51.478;-2.610;2023-05-10T01:58:59;40;36;
55276;PMS5003;41136;51.478;-2.610;2023-05-10T02:01:24;36;36;
55276;PMS5003;41136;51.478;-2.610;2023-05-10T02:03:50;37;31;
55276;PMS5003;41136;51.478;-2.610;2023-05-10T02:06:15;39;32;
55276;PMS5003;41136;51.478;-2.610;2023-05-10T02:08:40;39;32;
55276;PMS5003;41136;51.478;-2.610;2023-05-10T02:11:06;33;33;
55276;PMS5003;41136;51.478;-2.610;2023-05-10T02:13:31;35;29;
55276;PMS5003;41136;51.478;-2.610;2023-05-10T02:15:57;42;32;
55276;PMS5003;41136;51.478;-2.610;2023-05-10T02:18:23;34;28;
55276;PMS5003;41136;51.478;-2.610;2023-05-10T02:20:48;30;26;
55276;PMS5003;41136;51.478;-2.610;2023-05-10T02:23:14;29;27;
55276;PMS5003;41136;51.478;-2.610;2023-05-10T02:25:39;33;31;
55276;PMS5003;41136;51.478;-2.610;2023-05-10T02:28:04;34;25;
55276;PMS5003;41136;51.478;-2.610;2023-05-10T02:30:29;30;27;
55276;PMS5003;41136;51.478;-2.610;2023-05-10T02:32:54;35;31;
55276;PMS5003;41136;51.478;-2.610;2023-05-10T02:35:19;37;29;
55276;PMS5003;41136;51.478;-2.610;2023-05-10T02:37:44;32;30;
55276;PMS5003;41136;51.478;-2.610;2023-05-10T02:40:10;33;26;
55276;PMS5003;41136;51.478;-2.610;2023-05-10T02:42:35;29;26;
55276;PMS5003;41136;51.478;-2.610;2023-05-10T02:45:01;30;23;
55276;PMS5003;41136;51.478;-2.610;2023-05-10T02:47:26;32;29;
55276;PMS5003;41136;51.478;-2.610;2023-05-10T02:49:51;28;24;
55276;PMS5003;41136;51.478;-2.610;2023-05-10T02:52:19;31;30;
55276;PMS5003;41136;51.478;-2.610;2023-05-10T02:54:44;29;23;
55276;PMS5003;41136;51.478;-2.610;2023-05-10T02:57:08;24;22;
55276;PMS5003;41136;51.478;-2.610;2023-05-10T02:59:34;28;24;
55276;PMS5003;41136;51.478;-2.610;2023-05-10T03:01:59;27;23;
55276;PMS5003;41136;51.478;-2.610;2023-05-10T03:04:25;30;25;
55276;PMS5003;41136;51.478;-2.610;2023-05-10T03:06:50;34;27;
55276;PMS5003;41136;51.478;-2.610;2023-05-10T03:09:15;31;25;
55276;PMS5003;41136;51.478;-2.610;2023-05-10T03:11:44;29;25;
55276;PMS5003;41136;51.478;-2.610;2023-05-10T03:14:09;28;26;
55276;PMS5003;41136;51.478;-2.610;2023-05-10T03:16:33;28;24;
55276;PMS5003;41136;51.478;-2.610;2023-05-10T03:19:01;30;26;
55276;PMS5003;41136;51.478;-2.610;2023-05-10T03:21:23;25;21;
55276;PMS5003;41136;51.478;-2.610;2023-05-10T03:23:50;28;22;
55276;PMS5003;41136;51.478;-2.610;2023-05-10T03:26:21;31;29;
55276;PMS5003;41136;51.478;-2.610;2023-05-10T03:28:40;26;23;
55276;PMS5003;41136;51.478;-2.610;2023-05-10T03:31:05;23;21;
55276;PMS5003;41136;51.478;-2.610;2023-05-10T03:33:31;27;27;
55276;PMS5003;41136;51.478;-2.610;2023-05-10T03:35:56;26;20;
55276;PMS5003;41136;51.478;-2.610;2023-05-10T03:38:21;23;20;
55276;PMS5003;41136;51.478;-2.610;2023-05-10T03:40:47;23;20;
55276;PMS5003;41136;51.478;-2.610;2023-05-10T03:43:12;25;21;
55276;PMS5003;41136;51.478;-2.610;2023-05-10T03:45:37;32;27;
55276;PMS5003;41136;51.478;-2.610;2023-05-10T03:48:03;27;20;
55276;PMS5003;41136;51.478;-2.610;2023-05-10T03:50:28;29;26;
55276;PMS5003;41136;51.478;-2.610;2023-05-10T03:52:53;20;19;
55276;PMS5003;41136;51.478;-2.610;2023-05-10T03:55:19;22;21;
55276;PMS5003;41136;51.478;-2.610;2023-05-10T03:57:44;24;20;
55276;PMS5003;41136;51.478;-2.610;2023-05-10T04:00:10;24;22;
55276;PMS5003;41136;51.478;-2.610;2023-05-10T04:02:36;28;23;
55276;PMS5003;41136;51.478;-2.610;2023-05-10T04:05:01;22;20;
55276;PMS5003;41136;51.478;-2.610;2023-05-10T04:07:26;26;21;
55276;PMS5003;41136;51.478;-2.610;2023-05-10T04:09:52;27;21;
55276;PMS5003;41136;51.478;-2.610;2023-05-10T04:12:17;23;22;
55276;PMS5003;41136;51.478;-2.610;2023-05-10T04:18:47;25;21;
55276;PMS5003;41136;51.478;-2.610;2023-05-10T04:21:13;22;20;
55276;PMS5003;41136;51.478;-2.610;2023-05-10T04:23:37;22;17;
55276;PMS5003;41136;51.478;-2.610;2023-05-10T04:26:03;23;20;
55276;PMS5003;41136;51.478;-2.610;2023-05-10T04:28:28;24;22;
55276;PMS5003;41136;51.478;-2.610;2023-05-10T04:30:53;23;21;
55276;PMS5003;41136;51.478;-2.610;2023-05-10T04:33:19;23;20;
55276;PMS5003;41136;51.478;-2.610;2023-05-10T04:35:45;25;17;
55276;PMS5003;41136;51.478;-2.610;2023-05-10T04:38:09;21;19;
55276;PMS5003;41136;51.478;-2.610;2023-05-10T04:40:34;22;21;
55276;PMS5003;41136;51.478;-2.610;2023-05-10T04:42:59;26;21;
55276;PMS5003;41136;51.478;-2.610;2023-05-10T04:45:25;21;18;
55276;PMS5003;41136;51.478;-2.610;2023-05-10T04:47:50;20;19;
55276;PMS5003;41136;51.478;-2.610;2023-05-10T04:50:15;24;21;
55276;PMS5003;41136;51.478;-2.610;2023-05-10T04:52:41;22;20;
55276;PMS5003;41136;51.478;-2.610;2023-05-10T04:55:07;25;21;
55276;PMS5003;41136;51.478;-2.610;2023-05-10T04:57:31;28;26;
55276;PMS5003;41136;51.478;-2.610;2023-05-10T04:59:57;23;21;
55276;PMS5003;41136;51.478;-2.610;2023-05-10T05:02:23;22;20;
55276;PMS5003;41136;51.478;-2.610;2023-05-10T05:04:48;30;28;
55276;PMS5003;41136;51.478;-2.610;2023-05-10T05:07:13;19;19;
55276;PMS5003;41136;51.478;-2.610;2023-05-10T05:09:38;29;20;
55276;PMS5003;41136;51.478;-2.610;2023-05-10T05:12:04;24;21;
55276;PMS5003;41136;51.478;-2.610;2023-05-10T05:14:29;26;22;
55276;PMS5003;41136;51.478;-2.610;2023-05-10T05:16:55;24;19;
55276;PMS5003;41136;51.478;-2.610;2023-05-10T05:19:21;26;22;
55276;PMS5003;41136;51.478;-2.610;2023-05-10T05:21:46;21;20;
55276;PMS5003;41136;51.478;-2.610;2023-05-10T05:24:12;23;18;
55276;PMS5003;41136;51.478;-2.610;2023-05-10T05:26:37;27;21;
55276;PMS5003;41136;51.478;-2.610;2023-05-10T05:29:02;20;19;
55276;PMS5003;41136;51.478;-2.610;2023-05-10T05:31:28;22;20;
55276;PMS5003;41136;51.478;-2.610;2023-05-10T05:33:54;28;19;
55276;PMS5003;41136;51.478;-2.610;2023-05-10T05:36:19;22;17;
55276;PMS5003;41136;51.478;-2.610;2023-05-10T05:38:45;22;20;
55276;PMS5003;41136;51.478;-2.610;2023-05-10T05:41:09;22;20;
55276;PMS5003;41136;51.478;-2.610;2023-05-10T05:43:35;24;20;
55276;PMS5003;41136;51.478;-2.610;2023-05-10T05:45:59;28;21;
55276;PMS5003;41136;51.478;-2.610;2023-05-10T05:48:25;19;17;
55276;PMS5003;41136;51.478;-2.610;2023-05-10T05:50:53;26;17;
55276;PMS5003;41136;51.478;-2.610;2023-05-10T05:53:15;23;19;
55276;PMS5003;41136;51.478;-2.610;2023-05-10T05:58:06;22;17;
55276;PMS5003;41136;51.478;-2.610;2023-05-10T06:00:31;21;16;
55276;PMS5003;41136;51.478;-2.610;2023-05-10T06:02:56;17;15;
55276;PMS5003;41136;51.478;-2.610;2023-05-10T06:05:22;21;18;
55276;PMS5003;41136;51.478;-2.610;2023-05-10T06:07:47;17;14;
55276;PMS5003;41136;51.478;-2.610;2023-05-10T06:10:13;20;18;
55276;PMS5003;41136;51.478;-2.610;2023-05-10T06:12:39;15;15;
55276;PMS5003;41136;51.478;-2.610;2023-05-10T06:15:04;24;19;
55276;PMS5003;41136;51.478;-2.610;2023-05-10T06:17:30;14;10;
55276;PMS5003;41136;51.478;-2.610;2023-05-10T06:19:55;12;11;
55276;PMS5003;41136;51.478;-2.610;2023-05-10T06:22:21;16;13;
55276;PMS5003;41136;51.478;-2.610;2023-05-10T06:24:47;14;11;
55276;PMS5003;41136;51.478;-2.610;2023-05-10T06:27:13;14;10;
55276;PMS5003;41136;51.478;-2.610;2023-05-10T06:29:38;11;10;
55276;PMS5003;41136;51.478;-2.610;2023-05-10T06:32:03;10;10;
55276;PMS5003;41136;51.478;-2.610;2023-05-10T06:34:29;11;9;
55276;PMS5003;41136;51.478;-2.610;2023-05-10T06:36:54;7;6;
55276;PMS5003;41136;51.478;-2.610;2023-05-10T06:39:19;9;9;
55276;PMS5003;41136;51.478;-2.610;2023-05-10T06:41:45;9;8;
55276;PMS5003;41136;51.478;-2.610;2023-05-10T06:44:09;12;11;
55276;PMS5003;41136;51.478;-2.610;2023-05-10T06:46:35;9;9;
55276;PMS5003;41136;51.478;-2.610;2023-05-10T06:49:01;9;8;
55276;PMS5003;41136;51.478;-2.610;2023-05-10T06:51:26;8;8;
55276;PMS5003;41136;51.478;-2.610;2023-05-10T06:53:51;13;6;
55276;PMS5003;41136;51.478;-2.610;2023-05-10T06:56:17;8;7;
55276;PMS5003;41136;51.478;-2.610;2023-05-10T06:58:42;8;5;
55276;PMS5003;41136;51.478;-2.610;2023-05-10T07:01:08;12;8;
55276;PMS5003;41136;51.478;-2.610;2023-05-10T07:03:34;9;7;
55276;PMS5003;41136;51.478;-2.610;2023-05-10T07:06:00;7;6;
55276;PMS5003;41136;51.478;-2.610;2023-05-10T07:08:24;9;7;
55276;PMS5003;41136;51.478;-2.610;2023-05-10T07:10:50;11;9;
55276;PMS5003;41136;51.478;-2.610;2023-05-10T07:13:15;7;6;
55276;PMS5003;41136;51.478;-2.610;2023-05-10T07:15:41;11;9;
55276;PMS5003;41136;51.478;-2.610;2023-05-10T07:18:07;8;8;
55276;PMS5003;41136;51.478;-2.610;2023-05-10T07:20:32;8;6;
55276;PMS5003;41136;51.478;-2.610;2023-05-10T07:22:57;10;9;
55276;PMS5003;41136;51.478;-2.610;2023-05-10T07:25:23;6;6;
55276;PMS5003;41136;51.478;-2.610;2023-05-10T07:27:48;9;7;
55276;PMS5003;41136;51.478;-2.610;2023-05-10T07:30:14;7;7;
55276;PMS5003;41136;51.478;-2.610;2023-05-10T07:32:39;10;8;
55276;PMS5003;41136;51.478;-2.610;2023-05-10T07:35:04;7;7;
55276;PMS5003;41136;51.478;-2.610;2023-05-10T07:37:29;6;6;
55276;PMS5003;41136;51.478;-2.610;2023-05-10T07:39:55;8;6;
55276;PMS5003;41136;51.478;-2.610;2023-05-10T07:42:20;9;7;
55276;PMS5003;41136;51.478;-2.610;2023-05-10T07:44:46;8;6;
55276;PMS5003;41136;51.478;-2.610;2023-05-10T07:47:11;12;10;
55276;PMS5003;41136;51.478;-2.610;2023-05-10T07:49:37;9;7;
55276;PMS5003;41136;51.478;-2.610;2023-05-10T07:52:02;8;7;
55276;PMS5003;41136;51.478;-2.610;2023-05-10T07:54:27;7;7;
55276;PMS5003;41136;51.478;-2.610;2023-05-10T07:56:53;8;7;
55276;PMS5003;41136;51.478;-2.610;2023-05-10T07:59:18;6;6;
55276;PMS5003;41136;51.478;-2.610;2023-05-10T08:01:43;6;5;
55276;PMS5003;41136;51.478;-2.610;2023-05-10T08:04:08;6;5;
55276;PMS5003;41136;51.478;-2.610;2023-05-10T08:06:34;8;6;
55276;PMS5003;41136;51.478;-2.610;2023-05-10T08:08:59;8;7;
55276;PMS5003;41136;51.478;-2.610;2023-05-10T08:11:24;9;9;
55276;PMS5003;41136;51.478;-2.610;2023-05-10T08:13:50;10;6;
55276;PMS5003;41136;51.478;-2.610;2023-05-10T08:16:15;9;9;
55276;PMS5003;41136;51.478;-2.610;2023-05-10T08:18:41;9;7;
55276;PMS5003;41136;51.478;-2.610;2023-05-10T08:21:06;9;8;
55276;PMS5003;41136;51.478;-2.610;2023-05-10T08:23:31;10;9;
55276;PMS5003;41136;51.478;-2.610;2023-05-10T08:25:56;8;6;
55276;PMS5003;41136;51.478;-2.610;2023-05-10T08:28:22;9;8;
55276;PMS5003;41136;51.478;-2.610;2023-05-10T08:30:49;11;8;
55276;PMS5003;41136;51.478;-2.610;2023-05-10T08:33:13;9;8;
55276;PMS5003;41136;51.478;-2.610;2023-05-10T08:35:38;13;7;
55276;PMS5003;41136;51.478;-2.610;2023-05-10T08:38:04;7;7;
55276;PMS5003;41136;51.478;-2.610;2023-05-10T08:40:29;10;8;
55276;PMS5003;41136;51.478;-2.610;2023-05-10T08:42:57;11;9;
55276;PMS5003;41136;51.478;-2.610;2023-05-10T08:45:20;11;9;
55276;PMS5003;41136;51.478;-2.610;2023-05-10T08:47:46;9;9;
55276;PMS5003;41136;51.478;-2.610;2023-05-10T08:50:11;9;7;
55276;PMS5003;41136;51.478;-2.610;2023-05-10T08:52:37;12;10;
55276;PMS5003;41136;51.478;-2.610;2023-05-10T08:55:02;12;10;
55276;PMS5003;41136;51.478;-2.610;2023-05-10T08:57:27;9;8;
55276;PMS5003;41136;51.478;-2.610;2023-05-10T08:59:53;7;7;
55276;PMS5003;41136;51.478;-2.610;2023-05-10T09:02:18;11;10;
55276;PMS5003;41136;51.478;-2.610;2023-05-10T09:04:43;10;9;
55276;PMS5003;41136;51.478;-2.610;2023-05-10T09:07:08;13;11;
55276;PMS5003;41136;51.478;-2.610;2023-05-10T09:09:33;17;16;
55276;PMS5003;41136;51.478;-2.610;2023-05-10T09:11:59;14;13;
55276;PMS5003;41136;51.478;-2.610;2023-05-10T09:14:25;17;14;
55276;PMS5003;41136;51.478;-2.610;2023-05-10T09:16:50;15;13;
55276;PMS5003;41136;51.478;-2.610;2023-05-10T09:19:16;11;10;
55276;PMS5003;41136;51.478;-2.610;2023-05-10T09:21:41;13;12;
55276;PMS5003;41136;51.478;-2.610;2023-05-10T09:24:07;13;11;
55276;PMS5003;41136;51.478;-2.610;2023-05-10T09:26:31;14;12;
55276;PMS5003;41136;51.478;-2.610;2023-05-10T09:28:59;13;10;
55276;PMS5003;41136;51.478;-2.610;2023-05-10T09:31:22;8;6;
55276;PMS5003;41136;51.478;-2.610;2023-05-10T09:33:48;15;11;
55276;PMS5003;41136;51.478;-2.610;2023-05-10T09:36:13;11;11;
55276;PMS5003;41136;51.478;-2.610;2023-05-10T09:41:04;11;8;
55276;PMS5003;41136;51.478;-2.610;2023-05-10T09:43:29;7;6;
55276;PMS5003;41136;51.478;-2.610;2023-05-10T09:45:55;9;5;
55276;PMS5003;41136;51.478;-2.610;2023-05-10T09:48:21;7;7;
55276;PMS5003;41136;51.478;-2.610;2023-05-10T09:50:45;4;4;
55276;PMS5003;41136;51.478;-2.610;2023-05-10T09:53:12;7;7;
55276;PMS5003;41136;51.478;-2.610;2023-05-10T09:55:38;10;9;
55276;PMS5003;41136;51.478;-2.610;2023-05-10T09:58:02;8;6;
55276;PMS5003;41136;51.478;-2.610;2023-05-10T10:00:33;8;7;
55276;PMS5003;41136;51.478;-2.610;2023-05-10T10:02:54;8;6;
55276;PMS5003;41136;51.478;-2.610;2023-05-10T10:05:19;9;8;
55276;PMS5003;41136;51.478;-2.610;2023-05-10T10:07:44;4;4;
55276;PMS5003;41136;51.478;-2.610;2023-05-10T10:10:10;7;5;
55276;PMS5003;41136;51.478;-2.610;2023-05-10T10:12:35;6;5;
55276;PMS5003;41136;51.478;-2.610;2023-05-10T10:15:01;5;4;
55276;PMS5003;41136;51.478;-2.610;2023-05-10T10:17:26;6;4;
55276;PMS5003;41136;51.478;-2.610;2023-05-10T10:19:51;4;3;
55276;PMS5003;41136;51.478;-2.610;2023-05-10T10:22:16;5;3;
55276;PMS5003;41136;51.478;-2.610;2023-05-10T10:24:42;4;2;
55276;PMS5003;41136;51.478;-2.610;2023-05-10T10:27:15;7;3;
55276;PMS5003;41136;51.478;-2.610;2023-05-10T10:29:34;3;3;
55276;PMS5003;41136;51.478;-2.610;2023-05-10T10:32:02;3;3;
55276;PMS5003;41136;51.478;-2.610;2023-05-10T10:34:26;4;3;
55276;PMS5003;41136;51.478;-2.610;2023-05-10T10:36:49;5;4;
55276;PMS5003;41136;51.478;-2.610;2023-05-10T10:39:15;7;4;
55276;PMS5003;41136;51.478;-2.610;2023-05-10T10:41:40;7;5;
55276;PMS5003;41136;51.478;-2.610;2023-05-10T10:46:31;8;5;
55276;PMS5003;41136;51.478;-2.610;2023-05-10T10:51:22;7;5;
55276;PMS5003;41136;51.478;-2.610;2023-05-10T10:53:47;4;4;
55276;PMS5003;41136;51.478;-2.610;2023-05-10T10:56:13;6;4;
55276;PMS5003;41136;51.478;-2.610;2023-05-10T10:58:39;5;4;
55276;PMS5003;41136;51.478;-2.610;2023-05-10T11:03:29;6;5;
55276;PMS5003;41136;51.478;-2.610;2023-05-10T11:05:57;6;4;
55276;PMS5003;41136;51.478;-2.610;2023-05-10T11:08:26;5;5;
55276;PMS5003;41136;51.478;-2.610;2023-05-10T11:13:11;10;7;
55276;PMS5003;41136;51.478;-2.610;2023-05-10T11:15:38;5;4;
55276;PMS5003;41136;51.478;-2.610;2023-05-10T11:20:27;7;5;
55276;PMS5003;41136;51.478;-2.610;2023-05-10T11:22:53;7;6;
55276;PMS5003;41136;51.478;-2.610;2023-05-10T11:25:18;8;7;
55276;PMS5003;41136;51.478;-2.610;2023-05-10T11:27:43;4;4;
55276;PMS5003;41136;51.478;-2.610;2023-05-10T11:30:10;7;7;
55276;PMS5003;41136;51.478;-2.610;2023-05-10T11:32:35;7;4;
55276;PMS5003;41136;51.478;-2.610;2023-05-10T11:35:00;5;5;
55276;PMS5003;41136;51.478;-2.610;2023-05-10T11:37:28;3;3;
55276;PMS5003;41136;51.478;-2.610;2023-05-10T11:39:50;4;2;
55276;PMS5003;41136;51.478;-2.610;2023-05-10T11:42:16;7;7;
55276;PMS5003;41136;51.478;-2.610;2023-05-10T11:44:41;11;8;
55276;PMS5003;41136;51.478;-2.610;2023-05-10T11:47:06;5;4;
55276;PMS5003;41136;51.478;-2.610;2023-05-10T11:49:32;6;6;
55276;PMS5003;41136;51.478;-2.610;2023-05-10T11:54:22;3;3;
55276;PMS5003;41136;51.478;-2.610;2023-05-10T11:56:48;3;3;
55276;PMS5003;41136;51.478;-2.610;2023-05-10T11:59:13;3;3;
55276;PMS5003;41136;51.478;-2.610;2023-05-10T12:01:38;3;3;
55276;PMS5003;41136;51.478;-2.610;2023-05-10T12:04:03;4;3;
55276;PMS5003;41136;51.478;-2.610;2023-05-10T12:06:29;5;4;
55276;PMS5003;41136;51.478;-2.610;2023-05-10T12:08:54;4;4;
55276;PMS5003;41136;51.478;-2.610;2023-05-10T12:11:19;9;7;
55276;PMS5003;41136;51.478;-2.610;2023-05-10T12:13:45;5;5;
55276;PMS5003;41136;51.478;-2.610;2023-05-10T12:16:13;5;5;
55276;PMS5003;41136;51.478;-2.610;2023-05-10T12:18:35;6;4;
55276;PMS5003;41136;51.478;-2.610;2023-05-10T12:21:03;7;6;
55276;PMS5003;41136;51.478;-2.610;2023-05-10T12:23:26;4;4;
55276;PMS5003;41136;51.478;-2.610;2023-05-10T12:25:51;6;5;
55276;PMS5003;41136;51.478;-2.610;2023-05-10T12:28:18;7;4;
55276;PMS5003;41136;51.478;-2.610;2023-05-10T12:30:41;7;5;
55276;PMS5003;41136;51.478;-2.610;2023-05-10T12:33:07;4;4;
55276;PMS5003;41136;51.478;-2.610;2023-05-10T12:35:32;4;4;
55276;PMS5003;41136;51.478;-2.610;2023-05-10T12:37:57;4;4;
55276;PMS5003;41136;51.478;-2.610;2023-05-10T12:40:23;5;5;
55276;PMS5003;41136;51.478;-2.610;2023-05-10T12:42:48;4;4;
55276;PMS5003;41136;51.478;-2.610;2023-05-10T12:45:13;4;4;
55276;PMS5003;41136;51.478;-2.610;2023-05-10T12:47:39;3;3;
55276;PMS5003;41136;51.478;-2.610;2023-05-10T12:50:04;4;4;
55276;PMS5003;41136;51.478;-2.610;2023-05-10T12:52:29;3;3;
55276;PMS5003;41136;51.478;-2.610;2023-05-10T12:54:55;4;3;
55276;PMS5003;41136;51.478;-2.610;2023-05-10T12:57:20;2;2;
55276;PMS5003;41136;51.478;-2.610;2023-05-10T12:59:45;4;3;
55276;PMS5003;41136;51.478;-2.610;2023-05-10T13:02:11;4;3;
55276;PMS5003;41136;51.478;-2.610;2023-05-10T13:04:36;5;3;
55276;PMS5003;41136;51.478;-2.610;2023-05-10T13:07:01;4;4;
55276;PMS5003;41136;51.478;-2.610;2023-05-10T13:09:27;6;5;
55276;PMS5003;41136;51.478;-2.610;2023-05-10T13:11:52;2;1;
55276;PMS5003;41136;51.478;-2.610;2023-05-10T13:14:17;2;2;
55276;PMS5003;41136;51.478;-2.610;2023-05-10T13:16:42;2;2;
55276;PMS5003;41136;51.478;-2.610;2023-05-10T13:19:08;3;3;
55276;PMS5003;41136;51.478;-2.610;2023-05-10T13:21:33;3;3;
55276;PMS5003;41136;51.478;-2.610;2023-05-10T13:23:58;3;3;
55276;PMS5003;41136;51.478;-2.610;2023-05-10T13:26:24;3;3;
55276;PMS5003;41136;51.478;-2.610;2023-05-10T13:28:49;2;1;
55276;PMS5003;41136;51.478;-2.610;2023-05-10T13:31:14;3;3;
55276;PMS5003;41136;51.478;-2.610;2023-05-10T13:33:39;4;3;
55276;PMS5003;41136;51.478;-2.610;2023-05-10T13:36:05;2;2;
55276;PMS5003;41136;51.478;-2.610;2023-05-10T13:38:30;3;3;
55276;PMS5003;41136;51.478;-2.610;2023-05-10T13:40:55;1;1;
55276;PMS5003;41136;51.478;-2.610;2023-05-10T13:43:21;0;0;
55276;PMS5003;41136;51.478;-2.610;2023-05-10T13:45:46;1;1;
55276;PMS5003;41136;51.478;-2.610;2023-05-10T13:48:11;2;2;
55276;PMS5003;41136;51.478;-2.610;2023-05-10T13:50:36;1;1;
55276;PMS5003;41136;51.478;-2.610;2023-05-10T13:53:02;0;0;
55276;PMS5003;41136;51.478;-2.610;2023-05-10T13:55:27;1;1;
55276;PMS5003;41136;51.478;-2.610;2023-05-10T13:57:52;1;1;
55276;PMS5003;41136;51.478;-2.610;2023-05-10T14:00:18;1;1;
55276;PMS5003;41136;51.478;-2.610;2023-05-10T14:02:43;1;1;
55276;PMS5003;41136;51.478;-2.610;2023-05-10T14:05:08;1;1;
55276;PMS5003;41136;51.478;-2.610;2023-05-10T14:07:34;2;2;
55276;PMS5003;41136;51.478;-2.610;2023-05-10T14:09:59;2;2;
55276;PMS5003;41136;51.478;-2.610;2023-05-10T14:12:24;1;0;
55276;PMS5003;41136;51.478;-2.610;2023-05-10T14:14:49;1;1;
55276;PMS5003;41136;51.478;-2.610;2023-05-10T14:17:15;2;1;
55276;PMS5003;41136;51.478;-2.610;2023-05-10T14:19:40;0;0;
55276;PMS5003;41136;51.478;-2.610;2023-05-10T14:22:05;0;0;
55276;PMS5003;41136;51.478;-2.610;2023-05-10T14:24:30;3;1;
55276;PMS5003;41136;51.478;-2.610;2023-05-10T14:26:56;0;0;
55276;PMS5003;41136;51.478;-2.610;2023-05-10T14:29:21;0;0;
55276;PMS5003;41136;51.478;-2.610;2023-05-10T14:31:46;1;1;
55276;PMS5003;41136;51.478;-2.610;2023-05-10T14:34:12;0;0;
55276;PMS5003;41136;51.478;-2.610;2023-05-10T14:36:37;1;0;
55276;PMS5003;41136;51.478;-2.610;2023-05-10T14:39:02;0;0;
55276;PMS5003;41136;51.478;-2.610;2023-05-10T14:41:27;1;1;
55276;PMS5003;41136;51.478;-2.610;2023-05-10T14:43:53;2;1;
55276;PMS5003;41136;51.478;-2.610;2023-05-10T14:46:18;1;1;
55276;PMS5003;41136;51.478;-2.610;2023-05-10T14:48:43;1;1;
55276;PMS5003;41136;51.478;-2.610;2023-05-10T14:51:09;2;1;
55276;PMS5003;41136;51.478;-2.610;2023-05-10T14:53:34;0;0;
55276;PMS5003;41136;51.478;-2.610;2023-05-10T14:55:59;2;1;
55276;PMS5003;41136;51.478;-2.610;2023-05-10T14:58:25;0;0;
55276;PMS5003;41136;51.478;-2.610;2023-05-10T15:00:50;2;1;
55276;PMS5003;41136;51.478;-2.610;2023-05-10T15:03:15;0;0;
55276;PMS5003;41136;51.478;-2.610;2023-05-10T15:05:40;2;2;
55276;PMS5003;41136;51.478;-2.610;2023-05-10T15:08:06;0;0;
55276;PMS5003;41136;51.478;-2.610;2023-05-10T15:10:31;0;0;
55276;PMS5003;41136;51.478;-2.610;2023-05-10T15:12:56;0;0;
55276;PMS5003;41136;51.478;-2.610;2023-05-10T15:15:22;2;1;
55276;PMS5003;41136;51.478;-2.610;2023-05-10T15:17:47;3;1;
55276;PMS5003;41136;51.478;-2.610;2023-05-10T15:20:12;0;0;
55276;PMS5003;41136;51.478;-2.610;2023-05-10T15:22:37;4;1;
55276;PMS5003;41136;51.478;-2.610;2023-05-10T15:25:03;2;2;
55276;PMS5003;41136;51.478;-2.610;2023-05-10T15:27:28;3;3;
55276;PMS5003;41136;51.478;-2.610;2023-05-10T15:29:53;2;2;
55276;PMS5003;41136;51.478;-2.610;2023-05-10T15:32:19;1;1;
55276;PMS5003;41136;51.478;-2.610;2023-05-10T15:34:44;1;1;
55276;PMS5003;41136;51.478;-2.610;2023-05-10T15:37:09;0;0;
55276;PMS5003;41136;51.478;-2.610;2023-05-10T15:39:35;3;1;
55276;PMS5003;41136;51.478;-2.610;2023-05-10T15:42:00;0;0;
55276;PMS5003;41136;51.478;-2.610;2023-05-10T15:44:25;3;2;
55276;PMS5003;41136;51.478;-2.610;2023-05-10T15:46:50;1;1;
55276;PMS5003;41136;51.478;-2.610;2023-05-10T15:49:16;0;0;
55276;PMS5003;41136;51.478;-2.610;2023-05-10T15:51:41;0;0;
55276;PMS5003;41136;51.478;-2.610;2023-05-10T15:54:06;1;1;
55276;PMS5003;41136;51.478;-2.610;2023-05-10T16:00:22;1;1;
55276;PMS5003;41136;51.478;-2.610;2023-05-10T16:02:47;3;2;
55276;PMS5003;41136;51.478;-2.610;2023-05-10T16:05:12;1;1;
55276;PMS5003;41136;51.478;-2.610;2023-05-10T16:07:38;0;0;
55276;PMS5003;41136;51.478;-2.610;2023-05-10T16:10:03;4;4;
55276;PMS5003;41136;51.478;-2.610;2023-05-10T16:12:29;1;1;
55276;PMS5003;41136;51.478;-2.610;2023-05-10T16:20:29;0;0;
55276;PMS5003;41136;51.478;-2.610;2023-05-10T16:25:29;2;0;
55276;PMS5003;41136;51.478;-2.610;2023-05-10T16:31:23;3;1;
55276;PMS5003;41136;51.478;-2.610;2023-05-10T16:33:48;2;1;
55276;PMS5003;41136;51.478;-2.610;2023-05-10T16:36:13;1;1;
55276;PMS5003;41136;51.478;-2.610;2023-05-10T16:38:38;0;0;
55276;PMS5003;41136;51.478;-2.610;2023-05-10T16:41:03;0;0;
55276;PMS5003;41136;51.478;-2.610;2023-05-10T16:45:56;1;1;
55276;PMS5003;41136;51.478;-2.610;2023-05-10T16:48:21;3;2;
55276;PMS5003;41136;51.478;-2.610;2023-05-10T16:50:46;2;1;